sensor_id;sensor_type;location;lat;lon;timestamp;temperature;humidity
6252;DHT22;3159;52.414;9.784;2023-06-26T00:01:06;24.70;99.90
6252;DHT22;3159;52.414;9.784;2023-06-26T00:03:33;24.70;99.90
6252;DHT22;3159;52.414;9.784;2023-06-26T00:06:00;24.70;99.90
6252;DHT22;3159;52.414;9.784;2023-06-26T00:08:27;24.70;99.90
6252;DHT22;3159;52.414;9.784;2023-06-26T00:10:54;24.70;99.90
6252;DHT22;3159;52.414;9.784;2023-06-26T00:13:21;24.70;99.90
6252;DHT22;3159;52.414;9.784;2023-06-26T00:15:48;24.70;99.90
6252;DHT22;3159;52.414;9.784;2023-06-26T00:18:17;24.60;99.90
6252;DHT22;3159;52.414;9.784;2023-06-26T00:20:43;24.60;99.90
6252;DHT22;3159;52.414;9.784;2023-06-26T00:23:11;24.60;99.90
6252;DHT22;3159;52.414;9.784;2023-06-26T00:25:38;24.60;99.90
6252;DHT22;3159;52.414;9.784;2023-06-26T00:28:05;24.60;99.90
6252;DHT22;3159;52.414;9.784;2023-06-26T00:30:32;24.50;99.90
6252;DHT22;3159;52.414;9.784;2023-06-26T00:32:59;24.50;99.90
6252;DHT22;3159;52.414;9.784;2023-06-26T00:35:27;24.50;99.90
6252;DHT22;3159;52.414;9.784;2023-06-26T00:37:54;24.50;99.90
6252;DHT22;3159;52.414;9.784;2023-06-26T00:40:21;24.50;99.90
6252;DHT22;3159;52.414;9.784;2023-06-26T00:42:48;24.50;99.90
6252;DHT22;3159;52.414;9.784;2023-06-26T00:45:15;24.40;99.90
6252;DHT22;3159;52.414;9.784;2023-06-26T00:47:42;24.40;99.90
6252;DHT22;3159;52.414;9.784;2023-06-26T00:50:09;24.30;99.90
6252;DHT22;3159;52.414;9.784;2023-06-26T00:52:37;24.30;99.90
6252;DHT22;3159;52.414;9.784;2023-06-26T00:55:05;24.20;99.90
6252;DHT22;3159;52.414;9.784;2023-06-26T00:57:33;24.10;99.90
6252;DHT22;3159;52.414;9.784;2023-06-26T01:00:01;24.00;99.90
6252;DHT22;3159;52.414;9.784;2023-06-26T01:02:29;23.60;99.90
6252;DHT22;3159;52.414;9.784;2023-06-26T01:04:59;23.80;99.90
6252;DHT22;3159;52.414;9.784;2023-06-26T01:07:29;23.90;99.90
6252;DHT22;3159;52.414;9.784;2023-06-26T01:10:02;24.00;99.90
6252;DHT22;3159;52.414;9.784;2023-06-26T01:12:30;24.00;99.90
6252;DHT22;3159;52.414;9.784;2023-06-26T01:14:57;24.00;99.90
6252;DHT22;3159;52.414;9.784;2023-06-26T01:17:24;24.00;99.90
6252;DHT22;3159;52.414;9.784;2023-06-26T01:19:52;23.90;99.90
6252;DHT22;3159;52.414;9.784;2023-06-26T01:22:23;24.00;99.90
6252;DHT22;3159;52.414;9.784;2023-06-26T01:25:07;24.00;99.90
6252;DHT22;3159;52.414;9.784;2023-06-26T01:27:39;23.80;99.90
6252;DHT22;3159;52.414;9.784;2023-06-26T01:30:08;23.80;99.90
6252;DHT22;3159;52.414;9.784;2023-06-26T01:32:36;23.70;99.90
6252;DHT22;3159;52.414;9.784;2023-06-26T01:35:06;23.40;99.90
6252;DHT22;3159;52.414;9.784;2023-06-26T01:37:33;23.30;99.90
6252;DHT22;3159;52.414;9.784;2023-06-26T01:40:00;23.50;99.90
6252;DHT22;3159;52.414;9.784;2023-06-26T01:42:30;23.50;99.90
6252;DHT22;3159;52.414;9.784;2023-06-26T01:45:00;23.70;99.90
6252;DHT22;3159;52.414;9.784;2023-06-26T01:47:30;23.70;99.90
6252;DHT22;3159;52.414;9.784;2023-06-26T01:50:05;23.80;99.90
6252;DHT22;3159;52.414;9.784;2023-06-26T01:52:39;23.60;99.90
6252;DHT22;3159;52.414;9.784;2023-06-26T01:55:12;23.40;99.90
6252;DHT22;3159;52.414;9.784;2023-06-26T01:57:42;23.50;99.90
6252;DHT22;3159;52.414;9.784;2023-06-26T02:00:11;23.40;99.90
6252;DHT22;3159;52.414;9.784;2023-06-26T02:02:40;23.30;99.90
6252;DHT22;3159;52.414;9.784;2023-06-26T02:05:08;23.00;99.90
6252;DHT22;3159;52.414;9.784;2023-06-26T02:07:34;23.20;99.90
6252;DHT22;3159;52.414;9.784;2023-06-26T02:10:01;22.70;99.90
6252;DHT22;3159;52.414;9.784;2023-06-26T02:12:28;22.90;99.90
6252;DHT22;3159;52.414;9.784;2023-06-26T02:14:55;22.80;99.90
6252;DHT22;3159;52.414;9.784;2023-06-26T02:17:23;22.50;99.90
6252;DHT22;3159;52.414;9.784;2023-06-26T02:19:50;22.60;99.90
6252;DHT22;3159;52.414;9.784;2023-06-26T02:22:17;22.90;99.90
6252;DHT22;3159;52.414;9.784;2023-06-26T02:24:44;22.90;99.90
6252;DHT22;3159;52.414;9.784;2023-06-26T02:27:11;22.80;99.90
6252;DHT22;3159;52.414;9.784;2023-06-26T02:29:39;22.90;99.90
6252;DHT22;3159;52.414;9.784;2023-06-26T02:32:07;22.70;99.90
6252;DHT22;3159;52.414;9.784;2023-06-26T02:34:35;22.90;99.90
6252;DHT22;3159;52.414;9.784;2023-06-26T02:37:02;22.70;99.90
6252;DHT22;3159;52.414;9.784;2023-06-26T02:39:29;22.80;99.90
6252;DHT22;3159;52.414;9.784;2023-06-26T02:41:56;22.60;99.90
6252;DHT22;3159;52.414;9.784;2023-06-26T02:44:24;22.60;99.90
6252;DHT22;3159;52.414;9.784;2023-06-26T02:46:51;22.40;99.90
6252;DHT22;3159;52.414;9.784;2023-06-26T02:49:17;22.50;99.90
6252;DHT22;3159;52.414;9.784;2023-06-26T02:51:45;22.30;99.90
6252;DHT22;3159;52.414;9.784;2023-06-26T02:54:13;22.10;99.90
6252;DHT22;3159;52.414;9.784;2023-06-26T02:56:39;22.20;99.90
6252;DHT22;3159;52.414;9.784;2023-06-26T02:59:06;22.20;99.90
6252;DHT22;3159;52.414;9.784;2023-06-26T03:01:33;22.20;99.90
6252;DHT22;3159;52.414;9.784;2023-06-26T03:04:00;22.10;99.90
6252;DHT22;3159;52.414;9.784;2023-06-26T03:06:27;22.20;99.90
6252;DHT22;3159;52.414;9.784;2023-06-26T03:08:55;22.30;99.90
6252;DHT22;3159;52.414;9.784;2023-06-26T03:11:22;22.20;99.90
6252;DHT22;3159;52.414;9.784;2023-06-26T03:13:49;22.30;99.90
6252;DHT22;3159;52.414;9.784;2023-06-26T03:16:16;22.30;99.90
6252;DHT22;3159;52.414;9.784;2023-06-26T03:18:43;22.40;99.90
6252;DHT22;3159;52.414;9.784;2023-06-26T03:21:09;22.30;99.90
6252;DHT22;3159;52.414;9.784;2023-06-26T03:23:36;22.50;99.90
6252;DHT22;3159;52.414;9.784;2023-06-26T03:26:04;22.40;99.90
6252;DHT22;3159;52.414;9.784;2023-06-26T03:28:31;22.30;99.90
6252;DHT22;3159;52.414;9.784;2023-06-26T03:30:58;22.30;99.90
6252;DHT22;3159;52.414;9.784;2023-06-26T03:33:25;22.30;99.90
6252;DHT22;3159;52.414;9.784;2023-06-26T03:35:52;22.30;99.90
6252;DHT22;3159;52.414;9.784;2023-06-26T03:38:19;22.50;99.90
6252;DHT22;3159;52.414;9.784;2023-06-26T03:40:46;22.50;99.90
6252;DHT22;3159;52.414;9.784;2023-06-26T03:43:14;22.40;99.90
6252;DHT22;3159;52.414;9.784;2023-06-26T03:45:41;22.20;99.90
6252;DHT22;3159;52.414;9.784;2023-06-26T03:48:08;22.40;99.90
6252;DHT22;3159;52.414;9.784;2023-06-26T03:50:34;22.30;99.90
6252;DHT22;3159;52.414;9.784;2023-06-26T03:53:01;22.40;99.90
6252;DHT22;3159;52.414;9.784;2023-06-26T03:55:28;22.50;99.90
6252;DHT22;3159;52.414;9.784;2023-06-26T03:57:55;22.10;99.90
6252;DHT22;3159;52.414;9.784;2023-06-26T04:00:23;22.30;99.90
6252;DHT22;3159;52.414;9.784;2023-06-26T04:02:50;22.40;99.90
6252;DHT22;3159;52.414;9.784;2023-06-26T04:05:17;22.50;99.90
6252;DHT22;3159;52.414;9.784;2023-06-26T04:07:45;22.60;99.90
6252;DHT22;3159;52.414;9.784;2023-06-26T04:10:12;22.70;99.90
6252;DHT22;3159;52.414;9.784;2023-06-26T04:12:39;22.60;99.90
6252;DHT22;3159;52.414;9.784;2023-06-26T04:15:07;22.30;99.90
6252;DHT22;3159;52.414;9.784;2023-06-26T04:17:35;22.50;99.90
6252;DHT22;3159;52.414;9.784;2023-06-26T04:20:02;22.40;99.90
6252;DHT22;3159;52.414;9.784;2023-06-26T04:22:31;22.60;99.90
6252;DHT22;3159;52.414;9.784;2023-06-26T04:25:00;22.60;99.90
6252;DHT22;3159;52.414;9.784;2023-06-26T04:27:26;23.00;99.90
6252;DHT22;3159;52.414;9.784;2023-06-26T04:29:53;23.60;99.90
6252;DHT22;3159;52.414;9.784;2023-06-26T04:32:20;23.40;99.90
6252;DHT22;3159;52.414;9.784;2023-06-26T04:34:48;23.70;99.90
6252;DHT22;3159;52.414;9.784;2023-06-26T04:37:15;23.80;99.90
6252;DHT22;3159;52.414;9.784;2023-06-26T04:39:42;23.50;99.90
6252;DHT22;3159;52.414;9.784;2023-06-26T04:42:10;23.10;99.90
6252;DHT22;3159;52.414;9.784;2023-06-26T04:44:38;23.00;99.90
6252;DHT22;3159;52.414;9.784;2023-06-26T04:47:06;22.90;99.90
6252;DHT22;3159;52.414;9.784;2023-06-26T04:49:33;22.80;99.90
6252;DHT22;3159;52.414;9.784;2023-06-26T04:52:02;23.00;99.90
6252;DHT22;3159;52.414;9.784;2023-06-26T04:54:29;23.00;99.90
6252;DHT22;3159;52.414;9.784;2023-06-26T04:56:56;23.00;99.90
6252;DHT22;3159;52.414;9.784;2023-06-26T04:59:23;22.90;99.90
6252;DHT22;3159;52.414;9.784;2023-06-26T05:01:50;22.90;99.90
6252;DHT22;3159;52.414;9.784;2023-06-26T05:04:16;23.20;99.90
6252;DHT22;3159;52.414;9.784;2023-06-26T05:06:43;23.20;99.90
6252;DHT22;3159;52.414;9.784;2023-06-26T05:09:11;22.90;99.90
6252;DHT22;3159;52.414;9.784;2023-06-26T05:11:39;22.90;99.90
6252;DHT22;3159;52.414;9.784;2023-06-26T05:14:06;22.90;99.90
6252;DHT22;3159;52.414;9.784;2023-06-26T05:16:34;23.30;99.90
6252;DHT22;3159;52.414;9.784;2023-06-26T05:19:01;23.00;99.90
6252;DHT22;3159;52.414;9.784;2023-06-26T05:21:29;23.30;99.90
6252;DHT22;3159;52.414;9.784;2023-06-26T05:23:57;23.40;99.90
6252;DHT22;3159;52.414;9.784;2023-06-26T05:26:26;23.30;99.90
6252;DHT22;3159;52.414;9.784;2023-06-26T05:28:54;23.20;99.90
6252;DHT22;3159;52.414;9.784;2023-06-26T05:31:21;23.30;99.90
6252;DHT22;3159;52.414;9.784;2023-06-26T05:33:49;23.40;99.90
6252;DHT22;3159;52.414;9.784;2023-06-26T05:36:16;23.60;99.90
6252;DHT22;3159;52.414;9.784;2023-06-26T05:38:45;23.70;99.90
6252;DHT22;3159;52.414;9.784;2023-06-26T05:41:12;23.70;99.90
6252;DHT22;3159;52.414;9.784;2023-06-26T05:43:40;23.80;99.90
6252;DHT22;3159;52.414;9.784;2023-06-26T05:46:07;23.70;99.90
6252;DHT22;3159;52.414;9.784;2023-06-26T05:48:34;24.00;99.90
6252;DHT22;3159;52.414;9.784;2023-06-26T05:51:01;24.10;99.90
6252;DHT22;3159;52.414;9.784;2023-06-26T05:53:29;24.30;99.90
6252;DHT22;3159;52.414;9.784;2023-06-26T05:55:57;24.30;99.90
6252;DHT22;3159;52.414;9.784;2023-06-26T05:58:26;24.30;99.90
6252;DHT22;3159;52.414;9.784;2023-06-26T06:00:55;24.60;99.90
6252;DHT22;3159;52.414;9.784;2023-06-26T06:03:22;24.50;99.90
6252;DHT22;3159;52.414;9.784;2023-06-26T06:05:49;24.50;99.90
6252;DHT22;3159;52.414;9.784;2023-06-26T06:08:16;24.80;99.90
6252;DHT22;3159;52.414;9.784;2023-06-26T06:10:43;24.90;99.90
6252;DHT22;3159;52.414;9.784;2023-06-26T06:13:10;24.90;99.90
6252;DHT22;3159;52.414;9.784;2023-06-26T06:15:36;24.90;99.90
6252;DHT22;3159;52.414;9.784;2023-06-26T06:18:05;24.90;99.90
6252;DHT22;3159;52.414;9.784;2023-06-26T06:20:31;25.00;99.90
6252;DHT22;3159;52.414;9.784;2023-06-26T06:22:58;25.20;99.90
6252;DHT22;3159;52.414;9.784;2023-06-26T06:25:25;25.20;99.90
6252;DHT22;3159;52.414;9.784;2023-06-26T06:27:52;25.20;99.90
6252;DHT22;3159;52.414;9.784;2023-06-26T06:30:19;25.10;99.90
6252;DHT22;3159;52.414;9.784;2023-06-26T06:32:45;25.30;99.90
6252;DHT22;3159;52.414;9.784;2023-06-26T06:35:17;25.40;99.90
6252;DHT22;3159;52.414;9.784;2023-06-26T06:37:44;25.20;99.90
6252;DHT22;3159;52.414;9.784;2023-06-26T06:40:11;25.30;99.90
6252;DHT22;3159;52.414;9.784;2023-06-26T06:42:38;25.30;99.90
6252;DHT22;3159;52.414;9.784;2023-06-26T06:45:06;25.50;99.90
6252;DHT22;3159;52.414;9.784;2023-06-26T06:47:33;25.50;99.90
6252;DHT22;3159;52.414;9.784;2023-06-26T06:50:00;25.70;99.90
6252;DHT22;3159;52.414;9.784;2023-06-26T06:52:35;25.80;99.90
6252;DHT22;3159;52.414;9.784;2023-06-26T06:55:02;25.90;99.90
6252;DHT22;3159;52.414;9.784;2023-06-26T06:57:30;26.00;99.90
6252;DHT22;3159;52.414;9.784;2023-06-26T07:00:01;26.00;99.90
6252;DHT22;3159;52.414;9.784;2023-06-26T07:02:29;26.10;99.90
6252;DHT22;3159;52.414;9.784;2023-06-26T07:04:56;26.30;99.90
6252;DHT22;3159;52.414;9.784;2023-06-26T07:07:23;26.30;99.90
6252;DHT22;3159;52.414;9.784;2023-06-26T07:09:51;26.30;99.90
6252;DHT22;3159;52.414;9.784;2023-06-26T07:12:18;26.30;99.90
6252;DHT22;3159;52.414;9.784;2023-06-26T07:14:45;26.40;99.90
6252;DHT22;3159;52.414;9.784;2023-06-26T07:17:11;26.50;99.90
6252;DHT22;3159;52.414;9.784;2023-06-26T07:19:38;26.50;99.90
6252;DHT22;3159;52.414;9.784;2023-06-26T07:22:05;26.70;99.90
6252;DHT22;3159;52.414;9.784;2023-06-26T07:24:32;26.90;99.90
6252;DHT22;3159;52.414;9.784;2023-06-26T07:27:00;27.00;99.90
6252;DHT22;3159;52.414;9.784;2023-06-26T07:29:27;27.20;99.90
6252;DHT22;3159;52.414;9.784;2023-06-26T07:31:54;27.20;99.90
6252;DHT22;3159;52.414;9.784;2023-06-26T07:34:21;27.30;99.90
6252;DHT22;3159;52.414;9.784;2023-06-26T07:36:48;27.30;99.90
6252;DHT22;3159;52.414;9.784;2023-06-26T07:39:14;27.50;99.90
6252;DHT22;3159;52.414;9.784;2023-06-26T07:41:41;27.60;99.90
6252;DHT22;3159;52.414;9.784;2023-06-26T07:44:09;27.70;99.90
6252;DHT22;3159;52.414;9.784;2023-06-26T07:46:36;27.80;99.90
6252;DHT22;3159;52.414;9.784;2023-06-26T07:49:03;28.00;99.90
6252;DHT22;3159;52.414;9.784;2023-06-26T07:51:30;28.10;99.90
6252;DHT22;3159;52.414;9.784;2023-06-26T07:53:57;28.20;99.90
6252;DHT22;3159;52.414;9.784;2023-06-26T07:56:24;28.30;99.90
6252;DHT22;3159;52.414;9.784;2023-06-26T07:58:50;28.40;99.90
6252;DHT22;3159;52.414;9.784;2023-06-26T08:01:19;28.50;99.90
6252;DHT22;3159;52.414;9.784;2023-06-26T08:03:46;28.70;99.90
6252;DHT22;3159;52.414;9.784;2023-06-26T08:06:13;28.70;99.90
6252;DHT22;3159;52.414;9.784;2023-06-26T08:08:40;28.50;99.90
6252;DHT22;3159;52.414;9.784;2023-06-26T08:11:07;28.60;99.90
6252;DHT22;3159;52.414;9.784;2023-06-26T08:13:33;28.70;99.90
6252;DHT22;3159;52.414;9.784;2023-06-26T08:16:00;28.60;99.90
6252;DHT22;3159;52.414;9.784;2023-06-26T08:18:28;28.90;99.90
6252;DHT22;3159;52.414;9.784;2023-06-26T08:20:55;29.10;99.90
6252;DHT22;3159;52.414;9.784;2023-06-26T08:23:22;29.00;99.90
6252;DHT22;3159;52.414;9.784;2023-06-26T08:25:50;29.10;99.90
6252;DHT22;3159;52.414;9.784;2023-06-26T08:28:17;29.30;99.90
6252;DHT22;3159;52.414;9.784;2023-06-26T08:30:44;29.50;99.90
6252;DHT22;3159;52.414;9.784;2023-06-26T08:33:11;29.50;99.90
6252;DHT22;3159;52.414;9.784;2023-06-26T08:35:39;29.60;99.90
6252;DHT22;3159;52.414;9.784;2023-06-26T08:38:06;29.50;99.90
6252;DHT22;3159;52.414;9.784;2023-06-26T08:40:34;29.70;99.90
6252;DHT22;3159;52.414;9.784;2023-06-26T08:43:02;30.00;99.90
6252;DHT22;3159;52.414;9.784;2023-06-26T08:45:29;30.10;99.90
6252;DHT22;3159;52.414;9.784;2023-06-26T08:48:00;30.30;99.90
6252;DHT22;3159;52.414;9.784;2023-06-26T08:50:31;30.00;99.90
6252;DHT22;3159;52.414;9.784;2023-06-26T08:53:04;30.30;99.90
6252;DHT22;3159;52.414;9.784;2023-06-26T08:55:35;30.50;99.90
6252;DHT22;3159;52.414;9.784;2023-06-26T08:58:04;30.30;99.90
6252;DHT22;3159;52.414;9.784;2023-06-26T09:00:31;30.20;99.90
6252;DHT22;3159;52.414;9.784;2023-06-26T09:02:59;30.00;99.90
6252;DHT22;3159;52.414;9.784;2023-06-26T09:05:26;29.70;99.90
6252;DHT22;3159;52.414;9.784;2023-06-26T09:07:53;29.50;99.90
6252;DHT22;3159;52.414;9.784;2023-06-26T09:10:22;29.80;99.90
6252;DHT22;3159;52.414;9.784;2023-06-26T09:12:50;29.90;99.90
6252;DHT22;3159;52.414;9.784;2023-06-26T09:15:19;30.10;99.90
6252;DHT22;3159;52.414;9.784;2023-06-26T09:17:48;30.30;99.90
6252;DHT22;3159;52.414;9.784;2023-06-26T09:20:15;30.10;99.90
6252;DHT22;3159;52.414;9.784;2023-06-26T09:22:47;30.10;99.90
6252;DHT22;3159;52.414;9.784;2023-06-26T09:25:14;29.80;99.90
6252;DHT22;3159;52.414;9.784;2023-06-26T09:27:42;29.70;99.90
6252;DHT22;3159;52.414;9.784;2023-06-26T09:30:10;29.80;99.90
6252;DHT22;3159;52.414;9.784;2023-06-26T09:32:37;29.80;99.90
6252;DHT22;3159;52.414;9.784;2023-06-26T09:35:04;29.60;99.90
6252;DHT22;3159;52.414;9.784;2023-06-26T09:37:32;29.80;99.90
6252;DHT22;3159;52.414;9.784;2023-06-26T09:40:00;30.00;99.90
6252;DHT22;3159;52.414;9.784;2023-06-26T09:42:29;29.40;99.90
6252;DHT22;3159;52.414;9.784;2023-06-26T09:44:58;29.00;99.90
6252;DHT22;3159;52.414;9.784;2023-06-26T09:47:24;29.00;99.90
6252;DHT22;3159;52.414;9.784;2023-06-26T09:49:51;28.80;99.90
6252;DHT22;3159;52.414;9.784;2023-06-26T09:52:20;28.80;99.90
6252;DHT22;3159;52.414;9.784;2023-06-26T09:54:47;28.60;99.90
6252;DHT22;3159;52.414;9.784;2023-06-26T09:57:16;28.30;99.90
6252;DHT22;3159;52.414;9.784;2023-06-26T09:59:45;28.10;99.90
6252;DHT22;3159;52.414;9.784;2023-06-26T10:02:13;28.00;99.90
6252;DHT22;3159;52.414;9.784;2023-06-26T10:04:40;28.00;99.90
6252;DHT22;3159;52.414;9.784;2023-06-26T10:07:11;27.90;99.90
6252;DHT22;3159;52.414;9.784;2023-06-26T10:09:42;27.80;99.90
6252;DHT22;3159;52.414;9.784;2023-06-26T10:12:12;27.60;99.90
6252;DHT22;3159;52.414;9.784;2023-06-26T10:14:42;27.60;99.90
6252;DHT22;3159;52.414;9.784;2023-06-26T10:17:10;27.30;99.90
6252;DHT22;3159;52.414;9.784;2023-06-26T10:19:44;27.10;99.90
6252;DHT22;3159;52.414;9.784;2023-06-26T10:22:12;26.70;99.90
6252;DHT22;3159;52.414;9.784;2023-06-26T10:24:41;26.80;99.90
6252;DHT22;3159;52.414;9.784;2023-06-26T10:27:15;26.90;99.90
6252;DHT22;3159;52.414;9.784;2023-06-26T10:29:44;26.70;99.90
6252;DHT22;3159;52.414;9.784;2023-06-26T10:32:14;26.40;99.90
6252;DHT22;3159;52.414;9.784;2023-06-26T10:34:42;26.10;99.90
6252;DHT22;3159;52.414;9.784;2023-06-26T10:37:09;25.90;99.90
6252;DHT22;3159;52.414;9.784;2023-06-26T10:39:46;25.70;99.90
6252;DHT22;3159;52.414;9.784;2023-06-26T10:42:15;25.50;99.90
6252;DHT22;3159;52.414;9.784;2023-06-26T10:44:43;25.20;99.90
6252;DHT22;3159;52.414;9.784;2023-06-26T10:47:11;25.20;99.90
6252;DHT22;3159;52.414;9.784;2023-06-26T10:49:38;25.60;99.90
6252;DHT22;3159;52.414;9.784;2023-06-26T10:52:09;25.20;99.90
6252;DHT22;3159;52.414;9.784;2023-06-26T10:54:38;25.40;99.90
6252;DHT22;3159;52.414;9.784;2023-06-26T10:57:07;25.30;99.90
6252;DHT22;3159;52.414;9.784;2023-06-26T10:59:34;25.30;99.90
6252;DHT22;3159;52.414;9.784;2023-06-26T11:02:05;25.20;99.90
6252;DHT22;3159;52.414;9.784;2023-06-26T11:04:39;25.40;99.90
6252;DHT22;3159;52.414;9.784;2023-06-26T11:07:19;25.60;99.90
6252;DHT22;3159;52.414;9.784;2023-06-26T11:09:57;25.60;99.90
6252;DHT22;3159;52.414;9.784;2023-06-26T11:12:34;25.70;99.90
6252;DHT22;3159;52.414;9.784;2023-06-26T11:15:02;25.90;99.90
6252;DHT22;3159;52.414;9.784;2023-06-26T11:17:29;25.70;99.90
6252;DHT22;3159;52.414;9.784;2023-06-26T11:19:56;25.60;99.90
6252;DHT22;3159;52.414;9.784;2023-06-26T11:22:25;25.60;99.90
6252;DHT22;3159;52.414;9.784;2023-06-26T11:24:55;25.40;99.90
6252;DHT22;3159;52.414;9.784;2023-06-26T11:27:31;25.40;99.90
6252;DHT22;3159;52.414;9.784;2023-06-26T11:29:58;25.40;99.90
6252;DHT22;3159;52.414;9.784;2023-06-26T11:32:26;25.50;99.90
6252;DHT22;3159;52.414;9.784;2023-06-26T11:34:53;25.60;99.90
6252;DHT22;3159;52.414;9.784;2023-06-26T11:37:21;25.40;99.90
6252;DHT22;3159;52.414;9.784;2023-06-26T11:39:49;25.20;99.90
6252;DHT22;3159;52.414;9.784;2023-06-26T11:42:16;25.30;99.90
6252;DHT22;3159;52.414;9.784;2023-06-26T11:44:43;25.20;99.90
6252;DHT22;3159;52.414;9.784;2023-06-26T11:47:14;25.30;99.90
6252;DHT22;3159;52.414;9.784;2023-06-26T11:49:45;25.40;99.90
6252;DHT22;3159;52.414;9.784;2023-06-26T11:52:12;25.30;99.90
6252;DHT22;3159;52.414;9.784;2023-06-26T11:54:39;25.20;99.90
6252;DHT22;3159;52.414;9.784;2023-06-26T11:57:12;25.10;99.90
6252;DHT22;3159;52.414;9.784;2023-06-26T11:59:40;25.10;99.90
6252;DHT22;3159;52.414;9.784;2023-06-26T12:02:10;25.30;99.90
6252;DHT22;3159;52.414;9.784;2023-06-26T12:04:39;25.30;99.90
6252;DHT22;3159;52.414;9.784;2023-06-26T12:07:07;25.30;99.90
6252;DHT22;3159;52.414;9.784;2023-06-26T12:09:38;25.40;99.90
6252;DHT22;3159;52.414;9.784;2023-06-26T12:12:08;25.50;99.90
6252;DHT22;3159;52.414;9.784;2023-06-26T12:14:35;25.30;99.90
6252;DHT22;3159;52.414;9.784;2023-06-26T12:17:04;25.30;99.90
6252;DHT22;3159;52.414;9.784;2023-06-26T12:19:31;25.40;99.90
6252;DHT22;3159;52.414;9.784;2023-06-26T12:21:58;25.50;99.90
6252;DHT22;3159;52.414;9.784;2023-06-26T12:24:25;25.80;99.90
6252;DHT22;3159;52.414;9.784;2023-06-26T12:26:54;26.10;99.90
6252;DHT22;3159;52.414;9.784;2023-06-26T12:29:31;26.00;99.90
6252;DHT22;3159;52.414;9.784;2023-06-26T12:31:59;26.50;99.90
6252;DHT22;3159;52.414;9.784;2023-06-26T12:34:28;26.50;99.90
6252;DHT22;3159;52.414;9.784;2023-06-26T12:37:00;26.80;99.90
6252;DHT22;3159;52.414;9.784;2023-06-26T12:39:27;27.10;99.90
6252;DHT22;3159;52.414;9.784;2023-06-26T12:41:55;27.30;99.90
6252;DHT22;3159;52.414;9.784;2023-06-26T12:44:26;27.00;99.90
6252;DHT22;3159;52.414;9.784;2023-06-26T12:46:57;26.80;99.90
6252;DHT22;3159;52.414;9.784;2023-06-26T12:49:34;26.80;99.90
6252;DHT22;3159;52.414;9.784;2023-06-26T12:52:03;26.80;99.90
6252;DHT22;3159;52.414;9.784;2023-06-26T12:54:30;26.60;99.90
6252;DHT22;3159;52.414;9.784;2023-06-26T12:56:57;26.70;99.90
6252;DHT22;3159;52.414;9.784;2023-06-26T12:59:26;26.70;99.90
6252;DHT22;3159;52.414;9.784;2023-06-26T13:01:52;26.60;99.90
6252;DHT22;3159;52.414;9.784;2023-06-26T13:04:19;26.90;99.90
6252;DHT22;3159;52.414;9.784;2023-06-26T13:06:46;27.00;99.90
6252;DHT22;3159;52.414;9.784;2023-06-26T13:09:13;27.10;99.90
6252;DHT22;3159;52.414;9.784;2023-06-26T13:11:40;27.00;99.90
6252;DHT22;3159;52.414;9.784;2023-06-26T13:14:07;26.80;99.90
6252;DHT22;3159;52.414;9.784;2023-06-26T13:16:35;26.70;99.90
6252;DHT22;3159;52.414;9.784;2023-06-26T13:19:02;26.50;99.90
6252;DHT22;3159;52.414;9.784;2023-06-26T13:21:29;26.60;99.90
6252;DHT22;3159;52.414;9.784;2023-06-26T13:23:56;26.70;99.90
6252;DHT22;3159;52.414;9.784;2023-06-26T13:26:24;27.00;99.90
6252;DHT22;3159;52.414;9.784;2023-06-26T13:28:52;27.30;99.90
6252;DHT22;3159;52.414;9.784;2023-06-26T13:31:19;27.50;99.90
6252;DHT22;3159;52.414;9.784;2023-06-26T13:33:47;27.20;99.90
6252;DHT22;3159;52.414;9.784;2023-06-26T13:36:15;27.00;99.90
6252;DHT22;3159;52.414;9.784;2023-06-26T13:38:42;26.90;99.90
6252;DHT22;3159;52.414;9.784;2023-06-26T13:41:09;27.10;99.90
6252;DHT22;3159;52.414;9.784;2023-06-26T13:43:36;27.30;99.90
6252;DHT22;3159;52.414;9.784;2023-06-26T13:46:03;27.20;99.90
6252;DHT22;3159;52.414;9.784;2023-06-26T13:48:30;27.10;99.90
6252;DHT22;3159;52.414;9.784;2023-06-26T13:50:58;27.20;99.90
6252;DHT22;3159;52.414;9.784;2023-06-26T13:53:25;26.90;99.90
6252;DHT22;3159;52.414;9.784;2023-06-26T13:55:52;26.90;99.90
6252;DHT22;3159;52.414;9.784;2023-06-26T13:58:19;27.20;99.90
6252;DHT22;3159;52.414;9.784;2023-06-26T14:00:50;27.40;99.90
6252;DHT22;3159;52.414;9.784;2023-06-26T14:03:16;27.50;99.90
6252;DHT22;3159;52.414;9.784;2023-06-26T14:05:43;27.60;99.90
6252;DHT22;3159;52.414;9.784;2023-06-26T14:08:13;27.50;99.90
6252;DHT22;3159;52.414;9.784;2023-06-26T14:10:39;27.70;99.90
6252;DHT22;3159;52.414;9.784;2023-06-26T14:13:06;27.60;99.90
6252;DHT22;3159;52.414;9.784;2023-06-26T14:15:34;27.70;99.90
6252;DHT22;3159;52.414;9.784;2023-06-26T14:18:01;27.50;99.90
6252;DHT22;3159;52.414;9.784;2023-06-26T14:20:29;27.60;99.90
6252;DHT22;3159;52.414;9.784;2023-06-26T14:22:58;27.90;99.90
6252;DHT22;3159;52.414;9.784;2023-06-26T14:25:26;27.90;99.90
6252;DHT22;3159;52.414;9.784;2023-06-26T14:27:54;28.10;99.90
6252;DHT22;3159;52.414;9.784;2023-06-26T14:30:21;27.90;99.90
6252;DHT22;3159;52.414;9.784;2023-06-26T14:32:48;27.80;99.90
6252;DHT22;3159;52.414;9.784;2023-06-26T14:35:15;27.60;99.90
6252;DHT22;3159;52.414;9.784;2023-06-26T14:37:42;27.70;99.90
6252;DHT22;3159;52.414;9.784;2023-06-26T14:40:10;27.60;99.90
6252;DHT22;3159;52.414;9.784;2023-06-26T14:42:38;27.70;99.90
6252;DHT22;3159;52.414;9.784;2023-06-26T14:45:06;27.80;99.90
6252;DHT22;3159;52.414;9.784;2023-06-26T14:47:33;27.70;99.90
6252;DHT22;3159;52.414;9.784;2023-06-26T14:50:00;27.50;99.90
6252;DHT22;3159;52.414;9.784;2023-06-26T14:52:27;27.40;99.90
6252;DHT22;3159;52.414;9.784;2023-06-26T14:54:54;27.40;99.90
6252;DHT22;3159;52.414;9.784;2023-06-26T14:57:21;27.30;99.90
6252;DHT22;3159;52.414;9.784;2023-06-26T14:59:49;27.00;99.90
6252;DHT22;3159;52.414;9.784;2023-06-26T15:02:16;26.50;99.90
6252;DHT22;3159;52.414;9.784;2023-06-26T15:04:43;26.60;99.90
6252;DHT22;3159;52.414;9.784;2023-06-26T15:07:11;26.70;99.90
6252;DHT22;3159;52.414;9.784;2023-06-26T15:09:38;26.60;99.90
6252;DHT22;3159;52.414;9.784;2023-06-26T15:12:06;26.40;99.90
6252;DHT22;3159;52.414;9.784;2023-06-26T15:14:32;26.50;99.90
6252;DHT22;3159;52.414;9.784;2023-06-26T15:17:01;26.40;99.90
6252;DHT22;3159;52.414;9.784;2023-06-26T15:19:28;26.20;99.90
6252;DHT22;3159;52.414;9.784;2023-06-26T15:21:54;26.00;99.90
6252;DHT22;3159;52.414;9.784;2023-06-26T15:24:21;25.70;99.90
6252;DHT22;3159;52.414;9.784;2023-06-26T15:26:48;25.80;99.90
6252;DHT22;3159;52.414;9.784;2023-06-26T15:29:15;25.80;99.90
6252;DHT22;3159;52.414;9.784;2023-06-26T15:31:43;25.70;99.90
6252;DHT22;3159;52.414;9.784;2023-06-26T15:34:11;25.60;99.90
6252;DHT22;3159;52.414;9.784;2023-06-26T15:36:38;25.80;99.90
6252;DHT22;3159;52.414;9.784;2023-06-26T15:39:05;26.00;99.90
6252;DHT22;3159;52.414;9.784;2023-06-26T15:41:32;26.10;99.90
6252;DHT22;3159;52.414;9.784;2023-06-26T15:44:02;26.20;99.90
6252;DHT22;3159;52.414;9.784;2023-06-26T15:46:29;26.10;99.90
6252;DHT22;3159;52.414;9.784;2023-06-26T15:48:56;26.10;99.90
6252;DHT22;3159;52.414;9.784;2023-06-26T15:51:24;25.90;99.90
6252;DHT22;3159;52.414;9.784;2023-06-26T15:53:51;25.80;99.90
6252;DHT22;3159;52.414;9.784;2023-06-26T15:56:18;25.70;99.90
6252;DHT22;3159;52.414;9.784;2023-06-26T15:58:45;25.70;99.90
6252;DHT22;3159;52.414;9.784;2023-06-26T16:01:14;25.60;99.90
6252;DHT22;3159;52.414;9.784;2023-06-26T16:03:41;25.70;99.90
6252;DHT22;3159;52.414;9.784;2023-06-26T16:06:09;25.60;99.90